Time;durP1;ratioP1;P1;durP2;ratioP2;P2;SDS_P1;SDS_P2;PMS_P1;PMS_P2;Temp;Humidity;BMP_temperature;BMP_pressure;BME280_temperature;BME280_humidity;BME280_pressure;Samples;Min_cycle;Max_cycle;Signal;HPM_P1;HPM_P2
2022/11/18 00:00:51;;;;;;;34.47;28.00;;;;;;;9.25;58.52;99992.94;4957784;28;120722;-78
2022/11/18 00:03:17;;;;;;;32.25;27.17;;;;;;;9.15;58.72;99983.94;4924329;28;119822;-78
2022/11/18 00:05:51;;;;;;;32.33;27.02;;;;;;;9.26;59.17;99997.94;4941926;28;121803;-78
2022/11/18 00:08:17;;;;;;;32.10;26.17;;;;;;;9.27;59.05;100002.19;4941729;28;121905;-78
2022/11/18 00:10:43;;;;;;;28.60;24.50;;;;;;;9.21;58.54;99985.63;4926855;28;120003;-78
2022/11/18 00:16:04;;;;;;;29.05;23.10;;;;;;;9.31;59.22;100010.25;4949055;28;121352;-78
2022/11/18 00:18:29;;;;;;;27.63;22.37;;;;;;;9.38;58.70;100007.19;4944714;28;121574;-78
2022/11/18 00:21:09;;;;;;;24.83;20.80;;;;;;;9.40;59.26;100002.03;4927960;28;123012;-77
2022/11/18 00:23:36;;;;;;;22.27;19.92;;;;;;;9.39;58.85;100014.19;4960614;28;119961;-77
2022/11/18 00:26:07;;;;;;;22.65;19.83;;;;;;;9.34;58.46;100012.06;4941787;28;120382;-78
2022/11/18 00:28:33;;;;;;;22.65;20.35;;;;;;;9.25;58.32;100006.63;4941079;28;119965;-78
2022/11/18 00:31:04;;;;;;;24.03;20.23;;;;;;;9.31;59.10;100005.53;4943288;28;121605;-77
2022/11/18 00:33:30;;;;;;;22.63;20.30;;;;;;;9.28;58.56;100005.69;4941702;28;120831;-77
2022/11/18 00:35:56;;;;;;;22.70;20.23;;;;;;;9.28;58.62;100011.16;4942046;28;121204;-77
2022/11/18 00:38:21;;;;;;;24.00;19.77;;;;;;;9.31;59.21;100013.75;4945716;28;119996;-78
2022/11/18 00:40:47;;;;;;;23.53;19.40;;;;;;;9.26;58.34;100008.13;4924353;28;121795;-78
2022/11/18 00:43:13;;;;;;;21.77;19.40;;;;;;;9.27;58.25;100001.44;4943941;28;120478;-78
2022/11/18 00:45:38;;;;;;;22.45;18.77;;;;;;;9.31;58.12;100007.50;4958690;28;119910;-77
2022/11/18 00:48:04;;;;;;;20.83;18.23;;;;;;;9.35;58.31;100021.81;4941893;28;120395;-77
2022/11/18 00:50:32;;;;;;;20.45;17.23;;;;;;;9.31;58.05;100018.47;4942508;28;120970;-78
2022/11/18 00:52:57;;;;;;;19.52;17.15;;;;;;;9.27;57.77;100020.59;4941789;28;120430;-77
2022/11/18 00:55:23;;;;;;;18.87;16.87;;;;;;;9.26;57.74;100021.81;4941152;28;120965;-77
2022/11/18 00:57:49;;;;;;;18.27;16.23;;;;;;;9.23;57.74;100024.25;4940792;28;120280;-77
2022/11/18 01:00:15;;;;;;;18.27;16.07;;;;;;;9.22;57.24;100027.41;4943230;28;122652;-77
2022/11/18 01:02:41;;;;;;;17.90;15.60;;;;;;;9.20;56.78;100030.63;4942789;28;119920;-78
2022/11/18 01:05:08;;;;;;;17.63;15.68;;;;;;;9.20;57.58;100030.63;4941589;28;120357;-78
2022/11/18 01:07:33;;;;;;;18.77;15.55;;;;;;;9.20;57.13;100035.31;4940504;28;122865;-78
2022/11/18 01:09:59;;;;;;;18.57;15.83;;;;;;;9.17;57.08;100037.00;4926418;28;119656;-77
2022/11/18 01:15:09;;;;;;;17.63;14.88;;;;;;;9.16;56.41;100051.13;4959337;28;122023;-78
2022/11/18 01:17:34;;;;;;;18.00;16.10;;;;;;;9.01;56.78;100040.06;4928139;28;119703;-78
2022/11/18 01:20:00;;;;;;;17.07;15.07;;;;;;;9.09;57.17;100049.47;4947567;28;119656;-78
2022/11/18 01:22:26;;;;;;;16.93;15.03;;;;;;;9.07;57.09;100045.66;4926121;28;120289;-78
2022/11/18 01:24:51;;;;;;;17.02;15.23;;;;;;;9.10;57.16;100058.44;4939521;28;119901;-78
2022/11/18 01:27:17;;;;;;;15.63;13.90;;;;;;;9.08;56.77;100058.91;4940902;28;120939;-78
2022/11/18 01:29:42;;;;;;;16.15;14.00;;;;;;;8.95;56.53;100030.91;4943321;28;120426;-78
2022/11/18 01:32:08;;;;;;;14.88;13.23;;;;;;;9.00;56.46;100048.72;4941531;28;119821;-78
2022/11/18 01:34:34;;;;;;;16.08;13.95;;;;;;;9.00;56.73;100048.72;4939550;28;121111;-78
2022/11/18 01:36:59;;;;;;;16.80;13.55;;;;;;;9.03;56.32;100056.00;4942403;28;120957;-78
2022/11/18 01:39:25;;;;;;;15.10;13.23;;;;;;;9.04;56.72;100052.81;4945936;28;120241;-78
2022/11/18 01:42:13;;;;;;;16.90;12.80;;;;;;;9.04;57.06;100058.28;4946570;28;121917;-78
2022/11/18 01:45:24;;;;;;;15.70;12.48;;;;;;;9.07;57.00;100054.63;4923556;28;122001;-78
2022/11/18 01:47:58;;;;;;;16.13;12.82;;;;;;;9.07;57.05;100054.63;4953611;28;120207;-78
2022/11/18 01:50:24;;;;;;;18.05;12.93;;;;;;;9.06;56.70;100055.09;4942652;28;120368;-78
2022/11/18 01:52:54;;;;;;;14.97;12.60;;;;;;;9.08;56.80;100049.94;4941601;28;121106;-78
2022/11/18 01:55:26;;;;;;;17.60;12.75;;;;;;;9.06;57.22;100052.34;4940060;28;121484;-77
2022/11/18 01:58:04;;;;;;;14.93;12.17;;;;;;;9.04;57.24;100050.09;4940954;28;121074;-78
2022/11/18 02:00:30;;;;;;;15.68;12.50;;;;;;;9.05;57.16;100056.31;4940794;28;121162;-78
2022/11/18 02:02:57;;;;;;;14.90;11.83;;;;;;;8.97;56.75;100053.09;4923352;28;121749;-77
2022/11/18 02:05:25;;;;;;;12.35;10.70;;;;;;;9.00;57.19;100065.88;4963420;28;120679;-77
2022/11/18 02:07:51;;;;;;;15.13;10.82;;;;;;;8.88;56.89;100055.81;4941419;28;120547;-78
2022/11/18 02:10:22;;;;;;;12.80;10.93;;;;;;;8.92;56.86;100059.16;4943429;28;120387;-77
2022/11/18 02:12:51;;;;;;;12.02;10.57;;;;;;;8.99;56.84;100072.56;4942149;28;120932;-77
2022/11/18 02:15:41;;;;;;;12.85;10.27;;;;;;;8.95;56.27;100055.53;4941201;28;121246;-77
2022/11/18 02:18:29;;;;;;;12.52;10.57;;;;;;;9.06;56.89;100071.50;4942983;28;119777;-78
2022/11/18 02:21:07;;;;;;;12.27;10.18;;;;;;;9.03;56.85;100067.72;4940328;28;120745;-78
2022/11/18 02:23:33;;;;;;;13.50;10.40;;;;;;;9.07;55.82;100060.09;4925614;28;121821;-77
2022/11/18 02:26:01;;;;;;;13.10;10.03;;;;;;;9.07;55.80;100073.78;4924683;28;120466;-78
2022/11/18 02:28:52;;;;;;;13.07;10.35;;;;;;;9.07;55.86;100071.06;4941926;28;121565;-78
2022/11/18 02:31:50;;;;;;;12.52;10.05;;;;;;;9.10;56.48;100072.88;4942611;28;120742;-77
2022/11/18 02:34:36;;;;;;;13.32;10.00;;;;;;;9.12;56.11;100073.19;4908674;28;121635;-77
2022/11/18 02:37:30;;;;;;;11.13;9.60;;;;;;;9.06;56.23;100063.31;4925643;28;121233;-78
2022/11/18 02:40:17;;;;;;;14.77;11.00;;;;;;;9.14;57.10;100067.25;4943736;28;119769;-78
2022/11/18 02:42:49;;;;;;;13.10;10.67;;;;;;;9.19;56.53;100074.84;4942053;28;119684;-78
2022/11/18 02:45:17;;;;;;;13.18;10.60;;;;;;;9.20;56.51;100074.41;4943338;28;122078;-79
2022/11/18 02:47:46;;;;;;;12.73;10.80;;;;;;;9.23;56.98;100065.31;4924271;28;121058;-77
2022/11/18 02:50:17;;;;;;;13.10;10.80;;;;;;;9.20;56.19;100073.63;4927130;28;121930;-77
2022/11/18 02:52:45;;;;;;;13.70;11.13;;;;;;;9.22;56.98;100080.16;4962958;28;120124;-77
2022/11/18 02:55:13;;;;;;;14.30;11.00;;;;;;;9.18;56.51;100071.34;4943747;28;120189;-77
2022/11/18 02:57:40;;;;;;;15.30;11.23;;;;;;;9.16;56.64;100073.78;4924439;28;121016;-77
2022/11/18 03:00:07;;;;;;;15.10;11.50;;;;;;;9.17;56.79;100082.75;4943885;28;119736;-77
2022/11/18 03:02:47;;;;;;;13.52;11.07;;;;;;;9.08;56.85;100094.47;4943564;28;122272;-78
2022/11/18 03:05:24;;;;;;;15.40;11.23;;;;;;;8.99;56.86;100072.56;4936875;28;121594;-78
2022/11/18 03:07:59;;;;;;;12.40;10.45;;;;;;;9.01;56.80;100099.47;4942092;28;120184;-78
2022/11/18 03:10:34;;;;;;;13.25;10.05;;;;;;;9.00;56.33;100103.41;4925314;28;121390;-77
2022/11/18 03:13:41;;;;;;;12.27;10.00;;;;;;;8.98;56.38;100103.84;4955652;28;120619;-78
2022/11/18 03:16:19;;;;;;;13.32;10.13;;;;;;;8.96;56.82;100089.88;4926481;28;120734;-78
2022/11/18 03:18:56;;;;;;;11.85;10.00;;;;;;;8.97;55.58;100104.31;4938973;28;121320;-77
2022/11/18 03:21:40;;;;;;;12.77;10.38;;;;;;;8.92;56.43;100097.47;4927382;28;119751;-78
2022/11/18 03:24:13;;;;;;;13.82;10.50;;;;;;;9.04;56.80;100107.53;4941213;28;121547;-78
2022/11/18 03:26:47;;;;;;;13.80;10.32;;;;;;;9.09;57.12;100111.63;4922366;28;121333;-77
2022/11/18 03:29:17;;;;;;;13.55;11.00;;;;;;;9.12;56.28;100111.47;4940222;28;120505;-78
2022/11/18 03:31:52;;;;;;;14.52;10.90;;;;;;;9.07;56.06;100098.41;4939601;28;121026;-78
2022/11/18 03:34:30;;;;;;;14.30;10.95;;;;;;;9.11;56.30;100104.50;4923305;28;121601;-78
2022/11/18 03:37:00;;;;;;;16.20;10.88;;;;;;;9.11;56.81;100115.44;4944579;28;119629;-77
2022/11/18 03:39:30;;;;;;;14.35;11.00;;;;;;;9.07;56.44;100106.63;4939657;28;121247;-78
2022/11/18 03:42:07;;;;;;;15.35;10.90;;;;;;;9.13;56.85;100107.53;4938506;28;120419;-77
2022/11/18 03:44:49;;;;;;;13.73;10.97;;;;;;;9.08;56.84;100097.19;4939930;28;120573;-78
2022/11/18 03:47:34;;;;;;;14.23;11.30;;;;;;;9.10;56.51;100100.22;4942561;28;120254;-77
2022/11/18 03:50:11;;;;;;;14.05;11.07;;;;;;;9.13;56.79;100113.00;4940958;28;119782;-77
2022/11/18 03:52:38;;;;;;;16.58;11.55;;;;;;;9.10;56.43;100113.91;4942531;28;119904;-78
2022/11/18 03:55:11;;;;;;;15.05;11.48;;;;;;;9.09;56.21;100106.91;4944413;28;121185;-77
2022/11/18 03:57:53;;;;;;;15.35;11.57;;;;;;;9.11;55.85;100115.44;4943417;28;120296;-78
2022/11/18 04:00:19;;;;;;;14.30;11.23;;;;;;;9.10;56.11;100124.09;4948129;28;120075;-78
2022/11/18 04:02:48;;;;;;;15.05;10.90;;;;;;;9.02;54.88;100118.16;4944982;28;119830;-77
2022/11/18 04:05:16;;;;;;;15.50;11.27;;;;;;;8.97;55.66;100116.00;4944461;28;121715;-78
2022/11/18 04:07:50;;;;;;;15.75;11.48;;;;;;;8.98;55.42;100116.75;4942959;28;123011;-77
2022/11/18 04:10:18;;;;;;;16.67;11.57;;;;;;;8.95;55.04;100129.38;4944537;28;119811;-77
2022/11/18 04:12:49;;;;;;;15.48;11.20;;;;;;;8.94;55.43;100136.06;4943356;28;120123;-77
2022/11/18 04:15:19;;;;;;;15.82;11.80;;;;;;;9.02;55.08;100147.50;4942523;28;120979;-77
2022/11/18 04:17:45;;;;;;;15.00;11.20;;;;;;;8.97;54.31;100146.09;4926024;28;120292;-77
2022/11/18 04:20:37;;;;;;;16.08;11.65;;;;;;;8.91;55.46;100135.00;4902736;28;119878;-77
2022/11/18 04:23:04;;;;;;;16.40;11.65;;;;;;;8.96;54.70;100149.28;4941726;28;119923;-77
2022/11/18 04:25:29;;;;;;;14.80;11.05;;;;;;;8.95;54.97;100145.78;4926825;28;120206;-77
2022/11/18 04:27:55;;;;;;;15.73;11.33;;;;;;;8.95;54.83;100148.53;4941409;28;123655;-77
2022/11/18 04:30:21;;;;;;;14.10;10.77;;;;;;;8.91;53.98;100147.91;4960242;28;120722;-76
2022/11/18 04:32:47;;;;;;;16.23;10.70;;;;;;;8.90;53.54;100151.84;4925718;28;122055;-77
2022/11/18 04:35:13;;;;;;;13.95;10.20;;;;;;;8.92;53.98;100155.66;4926975;28;122546;-77
2022/11/18 04:37:57;;;;;;;14.17;9.93;;;;;;;8.86;53.28;100145.75;4955087;28;119744;-77
2022/11/18 04:40:23;;;;;;;15.40;9.87;;;;;;;8.82;52.90;100145.91;4943277;28;119944;-77
2022/11/18 04:42:49;;;;;;;12.77;9.00;;;;;;;8.92;52.42;100149.44;4942264;28;119940;-77
2022/11/18 04:45:15;;;;;;;12.20;9.00;;;;;;;8.93;52.42;100159.16;4931310;28;119914;-77
2022/11/18 04:47:41;;;;;;;12.73;8.53;;;;;;;8.89;51.77;100150.34;4956313;28;120354;-77
2022/11/18 04:50:06;;;;;;;12.00;8.53;;;;;;;8.86;52.52;100171.13;4958706;28;121841;-78
2022/11/18 04:52:32;;;;;;;13.13;8.48;;;;;;;8.91;51.03;100172.53;4943510;28;121711;-77
2022/11/18 04:54:58;;;;;;;12.80;8.63;;;;;;;8.89;52.08;100164.00;4942036;28;120620;-77
2022/11/18 04:57:29;;;;;;;11.40;8.48;;;;;;;8.88;52.33;100160.50;4940746;28;121684;-77
2022/11/18 04:59:55;;;;;;;13.23;8.30;;;;;;;8.92;52.13;100163.09;4924056;28;121571;-77
2022/11/18 05:02:20;;;;;;;14.25;8.70;;;;;;;8.90;51.97;100163.56;4925801;28;122430;-78
2022/11/18 05:04:46;;;;;;;13.13;8.45;;;;;;;8.86;51.88;100171.13;4942926;28;120133;-77
2022/11/18 05:07:13;;;;;;;13.07;8.40;;;;;;;8.78;51.91;100177.34;4946602;28;120056;-77
2022/11/18 05:09:42;;;;;;;15.45;8.82;;;;;;;8.71;52.80;100174.88;4943623;28;120527;-77
2022/11/18 05:14:58;;;;;;;15.40;8.27;;;;;;;8.59;53.29;100179.22;4940128;28;124383;-77
2022/11/18 05:17:24;;;;;;;15.18;8.35;;;;;;;8.58;52.89;100188.66;4925167;28;120432;-77
2022/11/18 05:19:55;;;;;;;19.30;8.70;;;;;;;8.56;53.23;100186.34;4941424;28;120057;-77
2022/11/18 05:22:21;;;;;;;19.13;9.05;;;;;;;8.52;53.51;100188.47;4924284;28;122396;-77
2022/11/18 05:24:53;;;;;;;15.02;8.02;;;;;;;8.48;54.00;100185.09;4941172;28;121056;-77
2022/11/18 05:27:19;;;;;;;18.08;8.60;;;;;;;8.50;53.80;100196.31;4960249;28;121581;-77
2022/11/18 05:29:44;;;;;;;19.25;8.82;;;;;;;8.50;53.94;100201.03;4924268;28;121354;-76
2022/11/18 05:32:10;;;;;;;17.40;7.93;;;;;;;8.44;54.37;100198.13;4942134;28;121223;-77
2022/11/18 05:34:36;;;;;;;15.00;7.67;;;;;;;8.39;54.45;100193.25;4924502;28;123177;-77
2022/11/18 05:37:02;;;;;;;19.20;7.97;;;;;;;8.44;54.82;100205.56;4941838;28;119938;-77
2022/11/18 05:39:27;;;;;;;20.63;7.90;;;;;;;8.44;54.71;100211.78;4940224;28;121637;-77
2022/11/18 05:44:37;;;;;;;14.77;6.83;;;;;;;8.36;54.32;100199.59;4939158;28;120881;-77
2022/11/18 05:47:03;;;;;;;13.15;6.78;;;;;;;8.40;54.40;100210.41;4940747;28;120159;-77
2022/11/18 05:49:28;;;;;;;13.75;6.82;;;;;;;8.47;54.88;100219.09;4928042;28;121300;-77
2022/11/18 05:51:54;;;;;;;12.50;6.72;;;;;;;8.41;54.46;100212.69;4925313;28;122224;-77
2022/11/18 05:54:20;;;;;;;13.38;6.28;;;;;;;8.42;54.37;100225.13;4924447;28;123516;-77
2022/11/18 05:56:46;;;;;;;12.97;6.40;;;;;;;8.44;54.34;100227.44;4940514;28;120251;-77
2022/11/18 05:59:15;;;;;;;11.90;6.28;;;;;;;8.41;54.11;100231.81;4940392;28;121870;-77
2022/11/18 06:01:58;;;;;;;9.35;5.88;;;;;;;8.40;54.19;100243.97;4906812;28;122703;-78
2022/11/18 06:04:47;;;;;;;10.65;5.75;;;;;;;8.35;54.49;100239.06;4941177;28;119956;-76
2022/11/18 06:07:24;;;;;;;9.87;5.70;;;;;;;8.38;54.17;100242.88;4926140;28;120525;-77
2022/11/18 06:09:54;;;;;;;9.75;5.45;;;;;;;8.30;54.00;100245.09;4941718;28;121373;-77
2022/11/18 06:12:24;;;;;;;10.82;6.00;;;;;;;8.32;54.72;100253.59;4945250;28;121244;-77
2022/11/18 06:15:14;;;;;;;10.23;5.53;;;;;;;8.32;54.19;100259.06;4954424;28;120350;-77
2022/11/18 06:18:00;;;;;;;9.23;5.78;;;;;;;8.35;54.01;100260.16;4937263;28;120779;-77
2022/11/18 06:20:26;;;;;;;9.18;5.80;;;;;;;8.37;54.52;100257.75;4923634;28;120110;-77
2022/11/18 06:22:57;;;;;;;9.35;5.68;;;;;;;8.36;55.03;100275.38;4936735;28;120137;-78
2022/11/18 06:25:23;;;;;;;8.48;5.82;;;;;;;8.36;55.04;100275.38;4940881;28;119669;-77
2022/11/18 06:27:52;;;;;;;10.33;6.20;;;;;;;8.29;55.33;100260.72;4942012;28;121212;-76
2022/11/18 06:30:18;;;;;;;9.98;6.40;;;;;;;8.43;55.37;100286.78;4906824;28;121649;-77
2022/11/18 06:32:44;;;;;;;10.90;6.43;;;;;;;8.45;55.77;100283.63;4938378;28;119804;-77
2022/11/18 06:35:09;;;;;;;10.83;6.50;;;;;;;8.48;55.83;100280.75;4945289;28;121658;-77
2022/11/18 06:37:35;;;;;;;10.45;6.28;;;;;;;8.41;55.84;100272.06;4943380;28;120235;-77
2022/11/18 06:40:02;;;;;;;9.60;6.63;;;;;;;8.51;56.05;100288.06;4940331;28;119985;-77
2022/11/18 06:45:12;;;;;;;15.50;8.57;;;;;;;8.49;56.13;100286.97;4941066;28;119646;-78
2022/11/18 06:47:38;;;;;;;12.88;7.07;;;;;;;8.58;56.37;100306.97;4938617;28;120181;-78
2022/11/18 06:50:29;;;;;;;11.10;6.97;;;;;;;8.59;55.85;100300.28;4935360;28;122427;-78
2022/11/18 06:52:55;;;;;;;10.93;7.45;;;;;;;8.66;56.44;100306.69;4942180;28;119900;-77
2022/11/18 06:55:21;;;;;;;11.33;7.33;;;;;;;8.71;56.47;100303.38;4939763;28;119993;-78
2022/11/18 06:57:47;;;;;;;10.73;6.93;;;;;;;8.77;56.34;100315.28;4944875;28;120425;-77
2022/11/18 07:00:13;;;;;;;13.30;6.95;;;;;;;8.82;55.49;100303.75;4957167;28;120090;-77
2022/11/18 07:02:38;;;;;;;9.85;7.15;;;;;;;8.82;55.28;100301.78;4907961;28;122430;-76
2022/11/18 07:05:05;;;;;;;12.57;7.30;;;;;;;8.90;55.99;100324.16;4942928;28;119799;-77
2022/11/18 07:07:34;;;;;;;10.20;7.13;;;;;;;8.94;55.83;100322.06;4940019;28;120108;-78
2022/11/18 07:10:00;;;;;;;11.00;7.22;;;;;;;8.98;55.16;100325.41;4940961;28;122709;-78
2022/11/18 07:12:34;;;;;;;11.93;7.07;;;;;;;9.04;55.06;100334.59;4936609;28;120362;-77
2022/11/18 07:15:00;;;;;;;11.70;7.60;;;;;;;9.07;54.99;100344.63;4923043;28;122740;-78
2022/11/18 07:17:31;;;;;;;11.70;7.40;;;;;;;9.10;55.40;100353.91;4939242;28;121319;-78
2022/11/18 07:19:57;;;;;;;12.82;7.38;;;;;;;9.17;54.82;100365.34;4943210;28;119605;-78
2022/11/18 07:22:23;;;;;;;12.60;8.00;;;;;;;9.22;54.90;100356.56;4940239;28;119916;-77
2022/11/18 07:24:48;;;;;;;11.43;7.77;;;;;;;9.15;54.88;100348.63;4940556;28;119652;-78
2022/11/18 07:27:14;;;;;;;12.93;7.80;;;;;;;9.27;54.72;100370.91;4946157;28;119731;-77
2022/11/18 07:29:39;;;;;;;11.00;7.73;;;;;;;9.24;54.89;100364.34;4925379;28;121821;-77
2022/11/18 07:32:05;;;;;;;14.13;7.27;;;;;;;9.30;54.54;100367.25;4941576;28;120121;-77
2022/11/18 07:34:31;;;;;;;13.13;7.60;;;;;;;9.29;55.23;100371.22;4941435;28;120440;-77
2022/11/18 07:37:19;;;;;;;11.60;7.50;;;;;;;9.43;55.07;100395.28;4919869;28;120400;-77
2022/11/18 07:39:45;;;;;;;10.65;7.20;;;;;;;9.41;54.86;100384.78;4946116;28;120233;-77
2022/11/18 07:42:10;;;;;;;11.90;7.38;;;;;;;9.48;54.69;100392.75;4943206;28;122858;-77
2022/11/18 07:44:39;;;;;;;13.70;7.32;;;;;;;9.50;54.98;100395.03;4942240;28;120012;-78
2022/11/18 07:47:06;;;;;;;10.73;7.15;;;;;;;9.53;54.87;100399.59;4939978;28;120084;-77
2022/11/18 07:49:32;;;;;;;12.20;7.90;;;;;;;9.51;54.46;100393.81;4926328;28;120476;-77
2022/11/18 07:51:57;;;;;;;11.57;8.20;;;;;;;9.53;54.44;100405.09;4936279;28;120759;-77
2022/11/18 07:54:23;;;;;;;12.80;8.87;;;;;;;9.47;54.51;100395.94;4937094;28;119984;-77
2022/11/18 07:56:48;;;;;;;15.07;8.57;;;;;;;9.50;54.53;100416.94;4938115;28;121042;-78
2022/11/18 07:59:14;;;;;;;15.83;8.90;;;;;;;9.43;54.84;100409.75;4942298;28;120037;-77
2022/11/18 08:01:40;;;;;;;12.20;8.80;;;;;;;9.46;54.92;100424.50;4942774;28;120063;-78
2022/11/18 08:04:07;;;;;;;13.53;8.90;;;;;;;9.44;55.29;100422.22;4925192;28;119866;-77
2022/11/18 08:06:39;;;;;;;13.57;9.02;;;;;;;9.43;54.67;100428.13;4926987;28;120186;-78
2022/11/18 08:09:07;;;;;;;12.43;9.20;;;;;;;9.47;54.79;100442.47;4941824;28;120778;-78
2022/11/18 08:11:32;;;;;;;13.57;9.75;;;;;;;9.47;54.54;100447.97;4942927;28;119817;-77
2022/11/18 08:13:58;;;;;;;12.95;9.45;;;;;;;9.49;54.65;100451.00;4939858;28;120250;-77
2022/11/18 08:16:25;;;;;;;13.40;9.30;;;;;;;9.55;54.09;100443.72;4942891;28;121152;-78
2022/11/18 08:18:51;;;;;;;12.20;9.73;;;;;;;9.54;53.81;100445.72;4926606;28;121830;-78
2022/11/18 08:21:20;;;;;;;13.47;9.83;;;;;;;9.55;53.92;100449.22;4925660;28;122244;-77
2022/11/18 08:23:54;;;;;;;13.70;9.48;;;;;;;9.50;53.60;100445.09;4929210;28;121104;-77
2022/11/18 08:26:20;;;;;;;13.55;9.60;;;;;;;9.46;53.02;100449.13;4958024;28;120497;-77
2022/11/18 08:28:49;;;;;;;14.10;9.48;;;;;;;9.44;53.40;100448.81;4956867;28;119901;-76
2022/11/18 08:31:21;;;;;;;13.43;9.45;;;;;;;9.44;53.73;100449.59;4942903;28;120909;-78
2022/11/18 08:33:47;;;;;;;12.67;9.43;;;;;;;9.55;53.63;100457.41;4943684;28;120079;-77
2022/11/18 08:36:33;;;;;;;13.18;8.70;;;;;;;9.58;53.42;100448.31;4943085;28;120381;-76
2022/11/18 08:39:01;;;;;;;11.80;8.90;;;;;;;9.71;53.54;100468.16;4934926;28;120311;-78
2022/11/18 08:41:41;;;;;;;12.77;8.50;;;;;;;9.71;52.07;100473.66;4927975;28;120188;-78
2022/11/18 08:44:09;;;;;;;12.03;8.13;;;;;;;9.60;52.25;100453.34;4922279;28;121281;-78
2022/11/18 08:46:34;;;;;;;12.38;8.40;;;;;;;9.69;52.64;100472.53;4929957;28;121244;-78
2022/11/18 08:49:00;;;;;;;12.23;8.37;;;;;;;9.71;52.62;100479.13;4943684;28;120962;-78
2022/11/18 08:51:27;;;;;;;12.93;8.33;;;;;;;9.71;52.69;100481.09;4958988;28;120581;-77
2022/11/18 08:53:53;;;;;;;11.75;7.88;;;;;;;9.70;52.54;100479.53;4942589;28;120002;-78
2022/11/18 08:56:21;;;;;;;11.27;7.80;;;;;;;9.73;52.22;100487.66;4959468;28;122884;-78
2022/11/18 08:58:47;;;;;;;12.05;7.82;;;;;;;9.73;53.36;100484.16;4908574;28;119918;-77
2022/11/18 09:01:13;;;;;;;11.60;7.93;;;;;;;9.74;52.89;100491.16;4942098;28;121489;-78
2022/11/18 09:03:39;;;;;;;12.60;8.10;;;;;;;9.80;52.89;100503.03;4941086;28;119817;-78
2022/11/18 09:06:05;;;;;;;10.55;7.57;;;;;;;9.84;53.09;100498.19;4925338;28;119945;-77
2022/11/18 09:08:31;;;;;;;11.77;8.30;;;;;;;9.87;52.69;100502.00;4930100;28;122098;-77
2022/11/18 09:10:57;;;;;;;11.32;8.60;;;;;;;9.84;52.79;100490.72;4942494;28;120766;-78
2022/11/18 09:13:23;;;;;;;11.50;7.87;;;;;;;9.82;52.42;100495.91;4942012;28;119960;-78
2022/11/18 09:15:49;;;;;;;11.95;7.50;;;;;;;9.89;52.32;100505.81;4923508;28;122664;-77
2022/11/18 09:18:15;;;;;;;11.90;7.93;;;;;;;9.82;52.51;100501.38;4918844;28;120046;-78
2022/11/18 09:20:42;;;;;;;10.48;6.47;;;;;;;9.94;52.32;100509.97;4940888;28;122037;-78
2022/11/18 09:23:08;;;;;;;9.98;5.90;;;;;;;9.95;51.79;100503.28;4942331;28;120195;-78
2022/11/18 09:25:33;;;;;;;8.40;4.80;;;;;;;9.87;50.69;100504.75;4942739;28;120363;-77
2022/11/18 09:27:59;;;;;;;10.60;4.53;;;;;;;9.75;51.22;100490.69;4941759;28;120020;-78
2022/11/18 09:30:25;;;;;;;8.47;4.07;;;;;;;9.79;50.60;100515.97;4944286;28;122844;-77
2022/11/18 09:32:51;;;;;;;6.75;3.70;;;;;;;9.70;50.50;100510.47;4940964;28;122407;-78
2022/11/18 09:35:17;;;;;;;7.80;4.00;;;;;;;9.72;50.32;100521.72;4941687;28;122557;-78
2022/11/18 09:37:42;;;;;;;7.20;3.50;;;;;;;9.59;49.61;100520.25;4940366;28;120064;-78
2022/11/18 09:40:14;;;;;;;6.17;3.20;;;;;;;9.59;50.18;100526.50;4926026;28;121467;-77
2022/11/18 09:43:09;;;;;;;4.75;3.03;;;;;;;9.53;49.87;100522.81;4941370;28;120758;-77
2022/11/18 09:45:40;;;;;;;4.68;3.40;;;;;;;9.55;49.52;100534.09;4939350;28;120017;-78
2022/11/18 09:48:18;;;;;;;6.83;3.40;;;;;;;9.54;49.82;100529.81;4941030;28;120205;-77
2022/11/18 09:50:44;;;;;;;5.43;2.70;;;;;;;9.51;49.24;100528.75;4930542;28;120315;-77
2022/11/18 09:53:20;;;;;;;5.43;2.73;;;;;;;9.60;49.47;100549.94;4924310;28;122262;-78
2022/11/18 09:55:47;;;;;;;7.68;2.97;;;;;;;9.61;48.83;100542.50;4956960;28;120590;-77
2022/11/18 09:58:34;;;;;;;5.10;2.55;;;;;;;9.51;48.91;100553.38;4926486;28;120123;-77
2022/11/18 10:01:00;;;;;;;5.97;3.00;;;;;;;9.44;49.10;100541.91;4941435;28;121045;-78
2022/11/18 10:03:32;;;;;;;6.57;2.75;;;;;;;9.39;49.55;100548.72;4939895;28;119736;-77
2022/11/18 10:06:25;;;;;;;5.80;3.00;;;;;;;9.43;49.69;100551.31;4942271;28;119716;-77
2022/11/18 10:09:09;;;;;;;6.67;2.83;;;;;;;9.44;50.34;100528.97;4940548;28;120106;-77
2022/11/18 10:12:14;;;;;;;6.43;3.17;;;;;;;9.60;50.04;100541.72;4943922;28;120505;-77
2022/11/18 10:14:40;;;;;;;6.05;2.90;;;;;;;9.68;50.36;100551.19;4934093;28;120507;-78
2022/11/18 10:17:14;;;;;;;4.43;2.50;;;;;;;9.74;49.81;100549.44;4926334;28;120017;-78
2022/11/18 10:19:56;;;;;;;5.13;2.80;;;;;;;9.78;49.85;100552.81;4943488;28;119996;-77
2022/11/18 10:22:30;;;;;;;5.83;2.70;;;;;;;9.81;49.92;100551.91;4941011;28;120359;-77
2022/11/18 10:24:59;;;;;;;7.38;2.80;;;;;;;9.85;49.44;100560.75;4923099;28;121471;-78
2022/11/18 10:27:40;;;;;;;5.32;2.60;;;;;;;9.85;48.71;100544.31;4940903;28;120431;-78
2022/11/18 10:30:12;;;;;;;8.48;2.30;;;;;;;9.87;49.14;100546.59;4939808;28;119719;-77
2022/11/18 10:32:54;;;;;;;3.88;2.08;;;;;;;9.85;49.54;100535.31;4939053;28;120467;-78
2022/11/18 10:35:38;;;;;;;4.33;2.30;;;;;;;10.14;49.57;100554.19;4956498;28;119689;-77
2022/11/18 10:38:13;;;;;;;4.53;2.42;;;;;;;10.34;48.61;100568.31;4944329;28;121513;-78
2022/11/18 10:41:08;;;;;;;5.78;2.20;;;;;;;10.53;48.45;100571.13;4926065;28;120351;-78
2022/11/18 10:43:47;;;;;;;4.30;2.30;;;;;;;10.67;47.65;100571.34;4953512;28;120200;-77
2022/11/18 10:46:32;;;;;;;6.00;2.47;;;;;;;10.73;47.43;100575.00;4939378;28;121452;-78
2022/11/18 10:49:07;;;;;;;3.28;2.03;;;;;;;10.76;47.41;100574.09;4956051;28;120515;-77
2022/11/18 10:51:34;;;;;;;4.55;2.30;;;;;;;10.75;47.26;100580.81;4942658;28;119749;-77
2022/11/18 10:54:26;;;;;;;4.87;2.30;;;;;;;10.72;47.30;100589.94;4923948;28;120254;-77
2022/11/18 10:56:56;;;;;;;6.43;2.53;;;;;;;10.68;48.05;100594.06;4953386;28;119919;-77
2022/11/18 10:59:51;;;;;;;5.85;2.55;;;;;;;10.58;47.93;100592.47;4927949;28;121762;-78
2022/11/18 11:02:16;;;;;;;5.35;2.45;;;;;;;10.57;48.35;100596.44;4946463;28;120240;-78
2022/11/18 11:04:44;;;;;;;4.65;2.53;;;;;;;10.49;48.23;100612.41;4943552;28;119900;-78
2022/11/18 11:07:34;;;;;;;7.10;2.67;;;;;;;10.39;48.89;100603.38;4941018;28;120487;-78
2022/11/18 11:10:03;;;;;;;5.65;2.55;;;;;;;10.40;48.55;100602.16;4946323;28;119929;-77
2022/11/18 11:12:53;;;;;;;4.15;2.20;;;;;;;10.48;49.14;100607.38;4943140;28;120676;-76
2022/11/18 11:15:43;;;;;;;5.22;2.40;;;;;;;10.49;48.82;100595.97;4911523;28;122068;-78
2022/11/18 11:20:57;;;;;;;6.40;2.40;;;;;;;10.58;49.01;100603.44;4942334;28;123600;-78
2022/11/18 11:23:24;;;;;;;6.27;2.40;;;;;;;10.67;48.50;100595.28;4940478;28;120281;-78
2022/11/18 11:26:28;;;;;;;4.57;2.30;;;;;;;10.66;47.60;100605.47;4943577;28;119945;-77
2022/11/18 11:29:01;;;;;;;4.57;2.30;;;;;;;10.56;48.17;100605.88;4940570;28;122096;-77
2022/11/18 11:31:59;;;;;;;3.63;2.30;;;;;;;10.47;48.36;100590.16;4943551;28;121398;-77
2022/11/18 11:34:40;;;;;;;4.10;2.28;;;;;;;10.51;47.82;100609.22;4944200;28;120236;-78
2022/11/18 11:37:08;;;;;;;3.70;2.40;;;;;;;10.45;47.80;100604.34;4941103;28;119878;-78
2022/11/18 11:40:12;;;;;;;5.15;2.28;;;;;;;10.41;47.77;100606.47;4943956;28;119972;-77
2022/11/18 11:42:39;;;;;;;5.60;2.23;;;;;;;10.44;48.94;100611.03;4942555;28;120286;-78
2022/11/18 11:45:20;;;;;;;5.95;3.00;;;;;;;10.59;48.88;100604.97;4943386;28;119793;-78
2022/11/18 11:48:13;;;;;;;5.23;2.40;;;;;;;10.72;48.55;100619.34;4940073;28;120747;-77
2022/11/18 11:50:53;;;;;;;6.70;2.60;;;;;;;10.87;48.95;100620.31;4963003;28;119752;-77